createdAt,value
2019-03-03T00:01:25.836Z,73.80
2019-03-03T00:03:29.621Z,75.20
2019-03-03T00:05:33.285Z,75.40
2019-03-03T00:07:37.040Z,74.80
2019-03-03T00:09:40.786Z,74.90
2019-03-03T00:11:44.451Z,74.80
2019-03-03T00:13:48.150Z,74.70
2019-03-03T00:15:51.812Z,74.60
2019-03-03T00:17:55.471Z,74.60
2019-03-03T00:19:59.172Z,74.70
2019-03-03T00:22:02.880Z,74.80
2019-03-03T00:24:06.773Z,74.60
2019-03-03T00:26:10.528Z,74.00
2019-03-03T00:28:14.188Z,74.60
2019-03-03T00:30:18.868Z,74.50
2019-03-03T00:32:22.539Z,74.60
2019-03-03T00:34:26.226Z,74.70
2019-03-03T00:36:31.464Z,74.60
2019-03-03T00:38:36.726Z,75.00
2019-03-03T00:40:44.716Z,75.30
2019-03-03T00:43:01.823Z,75.60
2019-03-03T00:45:13.603Z,75.70
2019-03-03T00:47:24.970Z,75.60
2019-03-03T00:49:30.204Z,75.80
2019-03-03T00:51:35.470Z,75.60
2019-03-03T00:53:40.732Z,75.80
2019-03-03T00:55:48.430Z,75.90
2019-03-03T00:58:02.210Z,75.70
2019-03-03T01:00:19.599Z,75.90
2019-03-03T01:02:27.623Z,76.80
2019-03-03T01:04:32.878Z,77.00
2019-03-03T01:06:38.126Z,76.10
2019-03-03T01:08:43.403Z,76.90
2019-03-03T01:10:48.673Z,76.70
2019-03-03T01:12:57.006Z,76.50
2019-03-03T01:15:08.131Z,76.40
2019-03-03T01:17:19.213Z,76.10
2019-03-03T01:19:36.567Z,76.10
2019-03-03T01:21:41.822Z,76.70
2019-03-03T01:23:47.066Z,76.60
2019-03-03T01:25:50.715Z,76.40
2019-03-03T01:27:54.389Z,76.80
2019-03-03T01:29:58.042Z,77.40
2019-03-03T01:32:01.926Z,76.90
2019-03-03T01:34:05.594Z,77.70
2019-03-03T01:36:09.245Z,77.60
2019-03-03T01:38:13.029Z,77.70
2019-03-03T01:40:16.758Z,78.20
2019-03-03T01:42:20.438Z,79.10
2019-03-03T01:44:24.094Z,79.90
2019-03-03T01:46:27.773Z,80.00
2019-03-03T01:48:31.476Z,80.70
2019-03-03T01:50:35.145Z,79.80
2019-03-03T01:52:38.922Z,79.50
2019-03-03T01:54:42.624Z,79.50
2019-03-03T01:56:46.277Z,79.30
2019-03-03T01:58:50.071Z,78.30
2019-03-03T02:00:54.039Z,79.10
2019-03-03T02:02:58.719Z,79.00
2019-03-03T02:05:02.374Z,78.40
2019-03-03T02:07:06.038Z,77.70
2019-03-03T02:09:11.905Z,77.10
2019-03-03T02:11:15.568Z,76.50
2019-03-03T02:13:19.343Z,76.80
2019-03-03T02:15:23.502Z,76.70
2019-03-03T02:17:27.166Z,77.10
2019-03-03T02:19:30.875Z,76.30
2019-03-03T02:21:34.539Z,76.70
2019-03-03T02:23:38.199Z,77.10
2019-03-03T02:25:41.883Z,76.80
2019-03-03T02:27:45.550Z,77.40
2019-03-03T02:29:49.247Z,78.10
2019-03-03T02:31:52.916Z,78.10
2019-03-03T02:33:56.592Z,77.60
2019-03-03T02:36:00.253Z,78.70
2019-03-03T02:38:03.921Z,77.90
2019-03-03T02:40:10.879Z,77.60
2019-03-03T02:42:14.537Z,77.80
2019-03-03T02:44:18.221Z,78.40
2019-03-03T02:46:21.918Z,79.00
2019-03-03T02:48:25.607Z,79.10
2019-03-03T02:50:29.295Z,79.10
2019-03-03T02:52:32.963Z,79.30
2019-03-03T02:54:36.722Z,78.70
2019-03-03T02:56:40.390Z,79.40
2019-03-03T02:58:44.045Z,79.20
2019-03-03T03:00:49.374Z,79.60
2019-03-03T03:03:03.070Z,79.30
2019-03-03T03:05:07.307Z,79.60
2019-03-03T03:07:12.565Z,79.20
2019-03-03T03:09:17.785Z,79.00
2019-03-03T03:11:23.046Z,79.40
2019-03-03T03:13:46.589Z,79.30
2019-03-03T03:15:51.863Z,80.20
2019-03-03T03:17:57.095Z,80.60
2019-03-03T03:20:08.014Z,80.90
2019-03-03T03:22:16.058Z,80.10
2019-03-03T03:24:39.431Z,79.60
2019-03-03T03:26:50.824Z,80.60
2019-03-03T03:29:01.915Z,80.70
2019-03-03T03:31:07.158Z,81.00
2019-03-03T03:33:18.468Z,80.40
2019-03-03T03:35:23.720Z,79.60
2019-03-03T03:37:28.972Z,81.30
2019-03-03T03:39:40.004Z,80.90
2019-03-03T03:41:48.375Z,80.50
2019-03-03T03:44:02.459Z,79.90
2019-03-03T03:46:13.261Z,80.10
2019-03-03T03:48:24.547Z,79.60
2019-03-03T03:50:45.895Z,79.40
2019-03-03T03:53:08.984Z,79.70
2019-03-03T03:55:30.682Z,79.50
2019-03-03T03:57:35.917Z,79.40
2019-03-03T03:59:41.140Z,78.50
2019-03-03T04:01:49.210Z,78.30
2019-03-03T04:04:10.643Z,78.40
2019-03-03T04:06:15.927Z,78.40
2019-03-03T04:08:30.430Z,78.10
2019-03-03T04:10:38.428Z,78.10
2019-03-03T04:13:00.157Z,78.60
2019-03-03T04:15:22.133Z,78.40
2019-03-03T04:17:30.288Z,79.10
2019-03-03T04:19:35.514Z,80.10
2019-03-03T04:21:55.926Z,80.40
2019-03-03T04:24:15.912Z,80.20
2019-03-03T04:26:32.901Z,80.70
2019-03-03T04:28:50.246Z,80.60
2019-03-03T04:31:13.788Z,80.20
2019-03-03T04:33:24.661Z,80.20
2019-03-03T04:35:46.144Z,80.70
2019-03-03T04:37:53.993Z,80.20
2019-03-03T04:40:08.053Z,79.70
2019-03-03T04:42:13.283Z,78.80
2019-03-03T04:44:27.358Z,78.40
2019-03-03T04:46:41.124Z,78.10
2019-03-03T04:48:46.563Z,78.00
2019-03-03T04:50:51.804Z,78.80
2019-03-03T04:53:13.559Z,79.70
2019-03-03T04:55:24.524Z,78.80
2019-03-03T04:57:32.219Z,79.10
2019-03-03T04:59:40.307Z,79.90
2019-03-03T05:01:45.529Z,80.30
2019-03-03T05:03:50.789Z,80.80
2019-03-03T05:06:13.715Z,80.60
2019-03-03T05:08:21.914Z,80.80
2019-03-03T05:10:33.214Z,80.80
2019-03-03T05:12:38.456Z,80.60
2019-03-03T05:14:43.714Z,80.50
2019-03-03T05:16:51.781Z,80.90
2019-03-03T05:18:57.056Z,80.30
2019-03-03T05:21:00.712Z,79.40
2019-03-03T05:23:04.370Z,80.30
2019-03-03T05:25:08.168Z,80.50
2019-03-03T05:27:11.830Z,80.70
2019-03-03T05:29:15.524Z,80.60
2019-03-03T05:31:19.179Z,80.60
2019-03-03T05:33:22.850Z,80.50
2019-03-03T05:35:26.542Z,79.60
2019-03-03T05:37:30.206Z,79.70
2019-03-03T05:39:33.894Z,79.40
2019-03-03T05:41:37.554Z,79.00
2019-03-03T05:43:41.318Z,79.80
2019-03-03T05:45:44.994Z,80.20
2019-03-03T05:47:48.654Z,79.90
2019-03-03T05:49:52.336Z,80.40
2019-03-03T05:51:55.994Z,80.30
2019-03-03T05:53:59.647Z,79.70
2019-03-03T05:56:03.331Z,79.70
2019-03-03T05:58:06.985Z,80.00
2019-03-03T06:00:12.551Z,79.50
2019-03-03T06:02:16.213Z,79.10
2019-03-03T06:04:19.883Z,78.90
2019-03-03T06:06:23.638Z,79.30
2019-03-03T06:08:27.300Z,80.00
2019-03-03T06:10:31.043Z,79.10
2019-03-03T06:12:34.727Z,79.50
2019-03-03T06:14:38.408Z,79.50
2019-03-03T06:16:42.086Z,79.70
2019-03-03T06:18:45.803Z,79.70
2019-03-03T06:20:49.547Z,79.30
2019-03-03T06:22:53.235Z,81.10
2019-03-03T06:24:56.891Z,80.60
2019-03-03T06:27:00.586Z,81.00
2019-03-03T06:29:04.247Z,80.70
2019-03-03T06:31:07.944Z,81.50
2019-03-03T06:33:11.623Z,81.40
2019-03-03T06:35:15.291Z,81.80
2019-03-03T06:37:19.116Z,82.30
2019-03-03T06:39:22.777Z,81.70
2019-03-03T06:41:26.463Z,80.60
2019-03-03T06:43:30.120Z,80.30
2019-03-03T06:45:33.776Z,80.00
2019-03-03T06:47:37.466Z,80.10
2019-03-03T06:49:41.144Z,79.50
2019-03-03T06:51:44.858Z,80.50
2019-03-03T06:53:48.642Z,80.40
2019-03-03T06:55:52.346Z,80.10
2019-03-03T06:57:56.043Z,79.70
2019-03-03T06:59:59.702Z,79.60
2019-03-03T07:02:03.383Z,78.80
2019-03-03T07:04:07.081Z,80.20
2019-03-03T07:06:10.747Z,80.30
2019-03-03T07:08:14.451Z,79.70
2019-03-03T07:10:18.194Z,82.30
2019-03-03T07:12:21.859Z,81.30
2019-03-03T07:14:25.546Z,80.80
2019-03-03T07:16:29.302Z,81.00
2019-03-03T07:18:33.006Z,81.80
2019-03-03T07:20:36.670Z,81.40
2019-03-03T07:22:40.338Z,81.50
2019-03-03T07:24:44.027Z,81.40
2019-03-03T07:26:47.682Z,80.60
2019-03-03T07:28:51.478Z,80.20
2019-03-03T07:30:55.143Z,80.80
2019-03-03T07:33:06.022Z,80.10
2019-03-03T07:35:09.903Z,79.10
2019-03-03T07:37:13.566Z,80.10
2019-03-03T07:39:18.381Z,81.90
2019-03-03T07:41:22.107Z,80.10
2019-03-03T07:43:25.762Z,80.60
2019-03-03T07:45:29.498Z,80.60
2019-03-03T07:47:33.167Z,79.10
2019-03-03T07:49:36.862Z,80.80
2019-03-03T07:51:40.539Z,80.20
2019-03-03T07:53:44.190Z,79.60
2019-03-03T07:55:47.880Z,79.40
2019-03-03T07:57:51.539Z,80.90
2019-03-03T07:59:55.218Z,79.90
2019-03-03T08:01:58.914Z,80.70
2019-03-03T08:04:02.617Z,80.30
2019-03-03T08:06:06.332Z,80.50
2019-03-03T08:08:10.001Z,80.00
2019-03-03T08:10:14.780Z,79.80
2019-03-03T08:12:18.433Z,80.50
2019-03-03T08:14:22.095Z,78.80
2019-03-03T08:16:25.787Z,78.70
2019-03-03T08:18:29.604Z,78.10
2019-03-03T08:20:33.290Z,80.40
2019-03-03T08:22:36.950Z,81.00
2019-03-03T08:24:40.621Z,81.40
2019-03-03T08:26:44.420Z,80.00
2019-03-03T08:28:48.082Z,81.00
2019-03-03T08:30:51.784Z,80.30
2019-03-03T08:32:55.451Z,79.50
2019-03-03T08:34:59.109Z,78.60
2019-03-03T08:37:02.794Z,78.60
2019-03-03T08:39:07.558Z,78.70
2019-03-03T08:41:11.243Z,80.00
2019-03-03T08:43:22.487Z,79.50
2019-03-03T08:45:44.075Z,78.60
2019-03-03T08:48:05.843Z,78.20
2019-03-03T08:50:11.090Z,79.00
2019-03-03T08:52:16.358Z,78.30
2019-03-03T08:54:21.585Z,77.40
2019-03-03T08:56:26.830Z,77.50
2019-03-03T08:58:48.349Z,77.90
2019-03-03T09:00:53.584Z,77.30
2019-03-03T09:02:58.855Z,77.70
2019-03-03T09:05:15.882Z,77.10
2019-03-03T09:07:24.159Z,77.00
2019-03-03T09:09:38.024Z,77.10
2019-03-03T09:11:44.104Z,77.90
2019-03-03T09:13:49.545Z,76.60
2019-03-03T09:15:57.679Z,78.10
2019-03-03T09:18:08.914Z,77.90
2019-03-03T09:20:14.160Z,77.10
2019-03-03T09:22:34.129Z,76.20
2019-03-03T09:24:41.794Z,75.40
2019-03-03T09:26:47.048Z,76.60
2019-03-03T09:29:08.378Z,76.10
2019-03-03T09:31:16.295Z,76.00
2019-03-03T09:33:39.551Z,74.50
2019-03-03T09:35:56.828Z,72.90
2019-03-03T09:38:04.655Z,74.50
2019-03-03T09:40:20.415Z,74.10
2019-03-03T09:42:28.376Z,73.80
2019-03-03T09:44:36.735Z,72.60
2019-03-03T09:46:54.007Z,71.10
2019-03-03T09:49:17.249Z,72.20
2019-03-03T09:51:28.607Z,72.60
2019-03-03T09:53:34.031Z,71.60
2019-03-03T09:55:39.262Z,72.00
2019-03-03T09:57:49.994Z,73.00
2019-03-03T09:59:57.695Z,72.80
2019-03-03T10:02:08.634Z,72.20
2019-03-03T10:04:19.787Z,72.50
2019-03-03T10:06:27.934Z,72.20
2019-03-03T10:08:36.230Z,72.10
2019-03-03T10:10:41.489Z,70.70
2019-03-03T10:12:52.288Z,72.70
2019-03-03T10:14:57.518Z,72.90
2019-03-03T10:17:11.986Z,72.60
2019-03-03T10:19:29.122Z,73.10
2019-03-03T10:21:50.988Z,72.30
2019-03-03T10:23:58.759Z,73.40
2019-03-03T10:26:07.347Z,74.40
2019-03-03T10:28:12.558Z,73.30
2019-03-03T10:30:18.026Z,72.30
2019-03-03T10:32:25.960Z,73.20
2019-03-03T10:34:43.178Z,72.70
2019-03-03T10:36:57.110Z,72.70
2019-03-03T10:39:18.715Z,70.60
2019-03-03T10:41:23.958Z,72.20
2019-03-03T10:43:32.077Z,70.80
2019-03-03T10:45:40.145Z,71.90
2019-03-03T10:47:51.324Z,71.60
2019-03-03T10:49:59.135Z,71.60
2019-03-03T10:52:10.351Z,72.10
2019-03-03T10:54:15.732Z,71.60
2019-03-03T10:56:23.670Z,70.10
2019-03-03T10:58:28.951Z,70.90
2019-03-03T11:00:36.763Z,71.00
2019-03-03T11:02:58.159Z,71.70
2019-03-03T11:05:06.158Z,72.70
2019-03-03T11:07:22.993Z,72.60
2019-03-03T11:09:34.155Z,72.50
2019-03-03T11:11:54.524Z,71.20
2019-03-03T11:14:11.100Z,70.20
2019-03-03T11:16:22.263Z,69.80
2019-03-03T11:18:45.446Z,69.30
2019-03-03T11:20:50.671Z,70.40
2019-03-03T11:23:11.113Z,70.30
2019-03-03T11:25:28.986Z,68.90
2019-03-03T11:27:43.289Z,70.20
2019-03-03T11:29:48.562Z,69.80
2019-03-03T11:31:56.778Z,70.00
2019-03-03T11:34:04.860Z,70.50
2019-03-03T11:36:24.946Z,69.80
2019-03-03T11:38:42.344Z,70.40
2019-03-03T11:40:53.506Z,70.30
2019-03-03T11:42:58.779Z,70.20
2019-03-03T11:45:04.042Z,70.80
2019-03-03T11:47:24.167Z,71.30
2019-03-03T11:49:29.443Z,71.30
2019-03-03T11:51:34.682Z,71.60
2019-03-03T11:53:58.066Z,71.90
2019-03-03T11:56:08.943Z,72.80
2019-03-03T11:58:32.173Z,70.70
2019-03-03T12:00:55.379Z,71.10
2019-03-03T12:03:06.380Z,71.60
2019-03-03T12:05:19.040Z,72.60
2019-03-03T12:07:33.323Z,72.40
2019-03-03T12:09:38.700Z,71.50
2019-03-03T12:12:00.473Z,70.00
2019-03-03T12:14:19.101Z,68.90
2019-03-03T12:16:27.361Z,67.90
2019-03-03T12:18:41.670Z,68.00
2019-03-03T12:20:46.969Z,67.20
2019-03-03T12:23:09.977Z,69.60
2019-03-03T12:25:31.643Z,67.00
2019-03-03T12:27:51.955Z,68.10
2019-03-03T12:30:03.277Z,66.60
2019-03-03T12:32:24.888Z,68.50
2019-03-03T12:34:32.641Z,68.00
2019-03-03T12:36:43.787Z,68.60
2019-03-03T12:38:51.674Z,68.30
2019-03-03T12:41:02.888Z,68.80
2019-03-03T12:43:19.754Z,68.40
2019-03-03T12:45:24.981Z,67.00
2019-03-03T12:47:36.160Z,66.80
2019-03-03T12:49:41.398Z,67.60
2019-03-03T12:52:04.527Z,67.90
2019-03-03T12:54:25.927Z,67.20
2019-03-03T12:56:47.580Z,66.20
2019-03-03T12:59:07.971Z,67.20
2019-03-03T13:01:29.711Z,66.70
2019-03-03T13:03:34.941Z,66.40
2019-03-03T13:05:56.479Z,67.70
2019-03-03T13:08:01.726Z,68.00
2019-03-03T13:10:18.949Z,67.00
2019-03-03T13:12:24.182Z,68.00
2019-03-03T13:14:44.263Z,67.10
2019-03-03T13:16:49.499Z,66.40
2019-03-03T13:19:03.574Z,66.10
2019-03-03T13:21:17.621Z,65.30
2019-03-03T13:23:34.831Z,65.70
2019-03-03T13:25:49.095Z,63.80
2019-03-03T13:28:00.048Z,64.50
2019-03-03T13:30:22.249Z,63.80
2019-03-03T13:32:39.596Z,64.50
2019-03-03T13:34:50.972Z,65.60
2019-03-03T13:36:58.657Z,65.50
2019-03-03T13:39:09.663Z,66.60
2019-03-03T13:41:15.015Z,65.20
2019-03-03T13:43:18.707Z,66.20
2019-03-03T13:45:22.398Z,65.70
2019-03-03T13:47:26.119Z,64.30
2019-03-03T13:49:29.798Z,64.40
2019-03-03T13:51:33.455Z,65.70
2019-03-03T13:53:37.132Z,63.30
2019-03-03T13:55:41.323Z,65.10
2019-03-03T13:57:45.091Z,63.80
2019-03-03T13:59:48.826Z,63.50
2019-03-03T14:01:52.474Z,63.30
2019-03-03T14:03:56.140Z,63.90
2019-03-03T14:05:59.899Z,63.40
2019-03-03T14:08:03.576Z,64.50
2019-03-03T14:10:09.667Z,63.10
2019-03-03T14:12:13.327Z,64.30
2019-03-03T14:14:16.997Z,63.30
2019-03-03T14:16:20.688Z,64.60
2019-03-03T14:18:24.357Z,64.20
2019-03-03T14:20:28.164Z,63.10
2019-03-03T14:22:31.821Z,62.50
2019-03-03T14:24:35.534Z,62.10
2019-03-03T14:26:39.194Z,62.30
2019-03-03T14:28:42.862Z,62.70
2019-03-03T14:30:46.631Z,62.90
2019-03-03T14:32:50.287Z,63.60
2019-03-03T14:34:53.957Z,62.90
2019-03-03T14:36:57.834Z,63.00
2019-03-03T14:39:01.492Z,63.20
2019-03-03T14:41:05.418Z,63.30
2019-03-03T14:43:09.130Z,62.30
2019-03-03T14:45:15.174Z,62.90
2019-03-03T14:47:18.871Z,63.30
2019-03-03T14:49:22.550Z,63.50
2019-03-03T14:51:28.425Z,63.90
2019-03-03T14:53:31.661Z,64.00
2019-03-03T14:55:35.364Z,63.00
2019-03-03T14:57:39.034Z,63.20
2019-03-03T14:59:42.807Z,63.10
2019-03-03T15:01:46.574Z,63.40
2019-03-03T15:03:50.239Z,62.60
2019-03-03T15:05:53.915Z,62.60
2019-03-03T15:07:57.619Z,63.30
2019-03-03T15:10:01.276Z,61.50
2019-03-03T15:12:04.975Z,61.00
2019-03-03T15:14:08.632Z,61.50
2019-03-03T15:16:12.288Z,62.30
2019-03-03T15:18:15.987Z,61.80
2019-03-03T15:20:19.660Z,62.90
2019-03-03T15:22:23.351Z,63.40
2019-03-03T15:24:27.011Z,63.90
2019-03-03T15:26:30.726Z,63.30
2019-03-03T15:28:34.429Z,63.30
2019-03-03T15:30:38.081Z,63.20
2019-03-03T15:32:41.759Z,61.60
2019-03-03T15:34:45.421Z,63.40
2019-03-03T15:36:49.087Z,64.00
2019-03-03T15:38:52.779Z,63.50
2019-03-03T15:40:56.496Z,63.10
2019-03-03T15:43:00.227Z,62.30
2019-03-03T15:45:05.961Z,62.80
2019-03-03T15:47:09.628Z,63.10
2019-03-03T15:49:13.323Z,63.30
2019-03-03T15:51:16.988Z,63.20
2019-03-03T15:53:20.672Z,62.90
2019-03-03T15:55:30.016Z,63.50
2019-03-03T15:57:33.698Z,63.00
2019-03-03T15:59:37.590Z,62.90
2019-03-03T16:01:41.247Z,63.50
2019-03-03T16:03:45.043Z,62.90
2019-03-03T16:05:48.711Z,62.20
2019-03-03T16:07:52.365Z,63.00
2019-03-03T16:09:56.063Z,62.90
2019-03-03T16:11:59.725Z,63.90
2019-03-03T16:14:03.472Z,63.20
2019-03-03T16:16:07.186Z,62.20
2019-03-03T16:18:10.946Z,62.30
2019-03-03T16:20:17.794Z,63.20
2019-03-03T16:22:21.452Z,63.00
2019-03-03T16:24:25.147Z,63.00
2019-03-03T16:26:28.811Z,62.80
2019-03-03T16:28:32.486Z,62.50
2019-03-03T16:30:36.155Z,62.30
2019-03-03T16:32:39.844Z,63.50
2019-03-03T16:34:43.719Z,62.80
2019-03-03T16:36:47.379Z,62.00
2019-03-03T16:38:51.051Z,61.90
2019-03-03T16:40:54.820Z,62.10
2019-03-03T16:42:58.483Z,62.20
2019-03-03T16:45:02.151Z,62.20
2019-03-03T16:47:05.848Z,62.30
2019-03-03T16:49:09.520Z,61.90
2019-03-03T16:51:13.213Z,62.30
2019-03-03T16:53:16.987Z,62.70
2019-03-03T16:57:33.630Z,62.70
2019-03-03T16:59:37.300Z,62.10
2019-03-03T17:01:40.996Z,62.20
2019-03-03T17:03:44.679Z,62.10
2019-03-03T17:05:48.344Z,62.30
2019-03-03T17:07:52.038Z,62.30
2019-03-03T17:09:55.702Z,62.30
2019-03-03T17:11:59.402Z,62.40
2019-03-03T17:14:03.147Z,62.80
2019-03-03T17:16:06.876Z,63.30
2019-03-03T17:18:10.579Z,64.10
2019-03-03T17:20:14.241Z,63.90
2019-03-03T17:22:19.398Z,63.80
2019-03-03T17:24:23.071Z,63.90
2019-03-03T17:26:26.763Z,64.20
2019-03-03T17:28:30.474Z,64.10
2019-03-03T17:30:34.147Z,64.50
2019-03-03T17:32:37.798Z,64.90
2019-03-03T17:34:41.539Z,65.20
2019-03-03T17:36:45.215Z,65.40
2019-03-03T17:38:48.917Z,65.40
2019-03-03T17:40:52.582Z,65.30
2019-03-03T17:42:56.275Z,65.50
2019-03-03T17:44:59.947Z,66.00
2019-03-03T17:47:03.819Z,66.10
2019-03-03T17:49:07.523Z,66.00
2019-03-03T17:51:11.187Z,65.80
2019-03-03T17:53:14.914Z,65.70
2019-03-03T17:55:18.574Z,65.80
2019-03-03T17:57:22.253Z,66.50
2019-03-03T17:59:25.955Z,66.60
2019-03-03T18:01:29.729Z,67.60
2019-03-03T18:03:33.418Z,67.90
2019-03-03T18:05:37.085Z,67.10
2019-03-03T18:07:40.821Z,67.30
2019-03-03T18:09:44.532Z,67.40
2019-03-03T18:11:48.203Z,67.30
2019-03-03T18:13:51.895Z,67.60
2019-03-03T18:15:55.583Z,67.20
2019-03-03T18:17:59.261Z,67.30
2019-03-03T18:20:03.151Z,66.70
2019-03-03T18:22:06.818Z,67.10
2019-03-03T18:24:10.483Z,67.30
2019-03-03T18:26:14.184Z,67.30
2019-03-03T18:28:17.835Z,66.90
2019-03-03T18:30:23.809Z,66.90
2019-03-03T18:32:27.482Z,67.30
2019-03-03T18:34:31.189Z,67.70
2019-03-03T18:36:35.158Z,67.60
2019-03-03T18:38:38.814Z,68.20
2019-03-03T18:40:42.526Z,68.60
2019-03-03T18:42:46.224Z,68.70
2019-03-03T18:44:49.895Z,68.80
2019-03-03T18:46:54.214Z,69.10
2019-03-03T18:48:57.868Z,69.10
2019-03-03T18:51:01.578Z,69.20
2019-03-03T18:53:05.503Z,69.40
2019-03-03T18:55:11.107Z,69.30
2019-03-03T18:57:14.794Z,68.40
2019-03-03T18:59:18.478Z,68.20
2019-03-03T19:01:22.168Z,68.50
2019-03-03T19:03:25.841Z,68.90
2019-03-03T19:05:29.680Z,69.00
2019-03-03T19:07:33.394Z,69.40
2019-03-03T19:09:37.048Z,69.80
2019-03-03T19:11:40.768Z,69.90
2019-03-03T19:13:44.450Z,70.00
2019-03-03T19:15:48.132Z,70.10
2019-03-03T19:17:51.828Z,70.20
2019-03-03T19:19:55.605Z,70.20
2019-03-03T19:21:59.304Z,70.40
2019-03-03T19:24:02.974Z,70.30
2019-03-03T19:26:06.649Z,70.20
2019-03-03T19:28:10.350Z,69.80
2019-03-03T19:30:19.113Z,70.10
2019-03-03T19:32:22.815Z,70.20
2019-03-03T19:34:26.587Z,70.50
2019-03-03T19:36:30.251Z,70.40
2019-03-03T19:38:33.963Z,70.50
2019-03-03T19:40:37.663Z,71.20
2019-03-03T19:42:41.382Z,70.70
2019-03-03T19:44:45.140Z,70.70
2019-03-03T19:46:48.896Z,70.30
2019-03-03T19:48:52.574Z,70.30
2019-03-03T19:50:56.294Z,70.40
2019-03-03T19:53:00.000Z,70.90
2019-03-03T19:55:04.167Z,71.10
2019-03-03T19:57:07.830Z,71.20
2019-03-03T19:59:11.556Z,71.30
2019-03-03T20:01:15.239Z,71.70
2019-03-03T20:03:19.026Z,71.90
2019-03-03T20:05:22.724Z,72.00
2019-03-03T20:07:26.396Z,72.00
2019-03-03T20:09:30.097Z,72.50
2019-03-03T20:11:33.756Z,72.40
2019-03-03T20:13:37.461Z,72.40
2019-03-03T20:15:41.115Z,72.20
2019-03-03T20:17:46.579Z,72.00
2019-03-03T20:19:50.267Z,71.80
2019-03-03T20:21:53.947Z,71.90
2019-03-03T20:23:57.625Z,72.10
2019-03-03T20:26:01.294Z,72.00
2019-03-03T20:28:04.981Z,72.00
2019-03-03T20:30:11.875Z,71.80
2019-03-03T20:32:15.580Z,71.90
2019-03-03T20:34:19.355Z,71.90
2019-03-03T20:36:23.739Z,72.00
2019-03-03T20:38:27.402Z,72.20
2019-03-03T20:40:31.135Z,72.00
2019-03-03T20:42:34.799Z,72.40
2019-03-03T20:44:38.540Z,72.50
2019-03-03T20:46:42.210Z,72.40
2019-03-03T20:48:45.974Z,72.60
2019-03-03T20:50:49.749Z,72.10
2019-03-03T20:52:53.521Z,73.00
2019-03-03T20:54:57.225Z,73.00
2019-03-03T20:57:00.905Z,73.70
2019-03-03T20:59:04.594Z,73.70
2019-03-03T21:01:08.525Z,73.40
2019-03-03T21:03:12.192Z,73.20
2019-03-03T21:05:15.910Z,73.20
2019-03-03T21:07:19.571Z,73.20
2019-03-03T21:09:23.250Z,72.80
2019-03-03T21:11:27.035Z,72.90
2019-03-03T21:13:30.749Z,73.00
2019-03-03T21:15:34.475Z,73.40
2019-03-03T21:17:39.240Z,73.10
2019-03-03T21:19:42.910Z,73.50
2019-03-03T21:21:46.674Z,73.30
2019-03-03T21:23:50.343Z,73.20
2019-03-03T21:25:54.041Z,73.40
2019-03-03T21:27:57.694Z,73.30
2019-03-03T21:30:01.469Z,73.10
2019-03-03T21:32:05.191Z,72.90
2019-03-03T21:34:08.839Z,72.70
2019-03-03T21:36:12.542Z,72.80
2019-03-03T21:38:16.231Z,72.70
2019-03-03T21:40:26.564Z,72.70
2019-03-03T21:42:30.263Z,72.60
2019-03-03T21:44:33.923Z,73.00
2019-03-03T21:46:37.611Z,73.30
2019-03-03T21:48:41.332Z,73.40
2019-03-03T21:50:45.099Z,73.20
2019-03-03T21:52:48.900Z,72.90
2019-03-03T21:54:52.558Z,73.00
2019-03-03T21:56:56.337Z,73.20
2019-03-03T21:59:00.076Z,73.00
2019-03-03T22:01:04.842Z,73.10
2019-03-03T22:03:08.532Z,73.00
2019-03-03T22:05:12.194Z,72.90
2019-03-03T22:07:15.860Z,72.90
2019-03-03T22:09:19.571Z,72.60
2019-03-03T22:11:23.223Z,72.30
2019-03-03T22:13:26.911Z,72.40
2019-03-03T22:15:30.575Z,72.80
2019-03-03T22:17:34.238Z,73.20
2019-03-03T22:19:38.044Z,73.80
2019-03-03T22:21:41.723Z,74.90
2019-03-03T22:23:45.432Z,75.30
2019-03-03T22:25:49.098Z,75.00
2019-03-03T22:27:52.764Z,74.90
2019-03-03T22:29:56.467Z,74.80
2019-03-03T22:32:00.141Z,74.70
2019-03-03T22:34:03.819Z,74.50
2019-03-03T22:36:07.474Z,74.00
2019-03-03T22:38:11.191Z,74.10
2019-03-03T22:40:17.131Z,73.80
2019-03-03T22:42:20.787Z,73.70
2019-03-03T22:44:24.488Z,73.60
2019-03-03T22:46:28.160Z,73.30
2019-03-03T22:48:31.972Z,73.00
2019-03-03T22:50:35.630Z,73.10
2019-03-03T22:52:39.387Z,72.70
2019-03-03T22:54:43.079Z,72.40
2019-03-03T22:56:46.742Z,72.00
2019-03-03T22:58:50.409Z,72.10
2019-03-03T23:01:05.897Z,71.90
2019-03-03T23:03:09.674Z,72.00
2019-03-03T23:05:38.901Z,72.10
2019-03-03T23:07:54.238Z,71.80
2019-03-03T23:10:36.571Z,71.70
2019-03-03T23:12:48.752Z,72.00
2019-03-03T23:15:10.388Z,72.50
2019-03-03T23:17:28.817Z,71.70
2019-03-03T23:19:47.689Z,72.10
2019-03-03T23:21:57.085Z,71.70
2019-03-03T23:24:18.566Z,71.80
2019-03-03T23:26:22.624Z,71.90
2019-03-03T23:28:26.318Z,71.60
2019-03-03T23:30:30.020Z,71.50
2019-03-03T23:32:33.698Z,70.90
2019-03-03T23:34:37.354Z,70.50
2019-03-03T23:36:41.054Z,71.10
2019-03-03T23:38:44.738Z,70.20
2019-03-03T23:40:48.400Z,70.90
2019-03-03T23:42:52.194Z,70.70
2019-03-03T23:44:55.855Z,70.40
2019-03-03T23:46:59.538Z,70.10
2019-03-03T23:49:03.206Z,70.20
2019-03-03T23:51:06.911Z,70.50
2019-03-03T23:53:10.595Z,69.60
2019-03-03T23:55:14.263Z,70.50
2019-03-03T23:57:17.937Z,70.40
2019-03-03T23:59:21.595Z,70.00
